createdAt,value
2022-10-31T00:02:01.998Z,17.11
2022-10-31T00:04:28.919Z,17.10
2022-10-31T00:06:55.783Z,17.08
2022-10-31T00:09:22.631Z,17.07
2022-10-31T00:11:49.443Z,17.05
2022-10-31T00:14:16.279Z,17.04
2022-10-31T00:16:43.099Z,17.01
2022-10-31T00:19:10.019Z,16.76
2022-10-31T00:21:36.947Z,17.00
2022-10-31T00:24:04.109Z,16.98
2022-10-31T00:26:31.466Z,16.97
2022-10-31T00:28:59.545Z,16.95
2022-10-31T00:31:27.513Z,16.94
2022-10-31T00:33:54.353Z,16.93
2022-10-31T00:36:21.695Z,16.93
2022-10-31T00:38:48.593Z,16.93
2022-10-31T00:41:17.074Z,16.91
2022-10-31T00:43:44.250Z,16.91
2022-10-31T00:46:12.094Z,16.91
2022-10-31T00:48:39.029Z,16.90
2022-10-31T00:51:06.559Z,16.90
2022-10-31T00:53:33.372Z,16.90
2022-10-31T00:56:00.309Z,16.89
2022-10-31T00:58:28.467Z,16.90
2022-10-31T01:00:58.805Z,16.89
2022-10-31T01:03:27.351Z,16.89
2022-10-31T01:05:58.951Z,16.88
2022-10-31T01:08:26.281Z,16.87
2022-10-31T01:11:16.218Z,16.72
2022-10-31T01:13:43.488Z,16.75
2022-10-31T01:16:16.314Z,16.70
2022-10-31T01:18:43.221Z,16.81
2022-10-31T01:21:14.689Z,16.80
2022-10-31T01:23:41.696Z,16.70
2022-10-31T01:26:13.385Z,16.77
2022-10-31T01:28:46.397Z,16.75
2022-10-31T01:31:13.262Z,16.72
2022-10-31T01:33:40.233Z,16.71
2022-10-31T01:36:24.849Z,16.70
2022-10-31T01:38:52.891Z,16.66
2022-10-31T01:41:21.648Z,16.64
2022-10-31T01:43:53.702Z,16.64
2022-10-31T01:46:26.187Z,16.49
2022-10-31T01:48:54.130Z,16.59
2022-10-31T01:51:21.955Z,16.56
2022-10-31T01:53:48.948Z,16.65
2022-10-31T01:56:15.923Z,16.67
2022-10-31T01:58:42.812Z,16.66
2022-10-31T02:01:09.878Z,16.64
2022-10-31T02:03:37.785Z,16.65
2022-10-31T02:06:04.707Z,16.70
2022-10-31T02:08:32.255Z,16.79
2022-10-31T02:10:59.523Z,16.94
2022-10-31T02:15:59.388Z,17.12
2022-10-31T02:18:29.212Z,17.14
2022-10-31T02:20:58.943Z,17.15
2022-10-31T02:23:50.712Z,17.11
2022-10-31T02:26:23.798Z,17.18
2022-10-31T02:29:07.990Z,17.27
2022-10-31T02:32:01.837Z,17.29
2022-10-31T02:34:53.817Z,17.33
2022-10-31T02:37:23.350Z,17.38
2022-10-31T02:40:21.093Z,17.48
2022-10-31T02:43:32.161Z,17.54
2022-10-31T02:46:12.345Z,17.50
2022-10-31T02:48:40.220Z,17.55
2022-10-31T02:51:07.348Z,17.59
2022-10-31T02:53:36.767Z,17.65
2022-10-31T02:56:13.957Z,17.73
2022-10-31T02:59:02.397Z,17.78
2022-10-31T03:01:35.729Z,17.79
2022-10-31T03:04:40.349Z,17.80
2022-10-31T03:07:41.337Z,17.85
2022-10-31T03:10:08.241Z,17.90
2022-10-31T03:13:05.699Z,17.90
2022-10-31T03:15:46.235Z,17.89
2022-10-31T03:18:27.555Z,17.88
2022-10-31T03:21:00.209Z,17.87
2022-10-31T03:23:27.018Z,17.91
2022-10-31T03:25:54.409Z,17.97
2022-10-31T03:28:29.578Z,17.90
2022-10-31T03:30:57.204Z,18.08
2022-10-31T03:33:27.464Z,18.02
2022-10-31T03:35:56.575Z,18.06
2022-10-31T03:38:24.338Z,18.07
2022-10-31T03:40:53.145Z,18.13
2022-10-31T03:43:31.376Z,18.22
2022-10-31T03:45:58.272Z,18.23
2022-10-31T03:48:25.112Z,18.27
2022-10-31T03:51:06.331Z,18.31
2022-10-31T03:53:40.957Z,18.31
2022-10-31T03:56:20.767Z,18.34
2022-10-31T03:59:08.374Z,18.40
2022-10-31T04:01:37.353Z,18.43
2022-10-31T04:04:04.343Z,18.46
2022-10-31T04:06:31.161Z,18.46
2022-10-31T04:09:00.760Z,18.43
2022-10-31T04:11:33.022Z,18.47
2022-10-31T04:14:28.979Z,18.55
2022-10-31T04:16:56.755Z,18.47
2022-10-31T04:19:33.818Z,18.64
2022-10-31T04:22:00.973Z,18.60
2022-10-31T04:24:27.941Z,18.73
2022-10-31T04:26:54.938Z,18.73
2022-10-31T04:29:23.653Z,18.75
2022-10-31T04:31:51.469Z,18.75
2022-10-31T04:34:18.408Z,18.89
2022-10-31T04:36:45.363Z,18.92
2022-10-31T04:39:14.853Z,18.89
2022-10-31T04:41:48.657Z,18.79
2022-10-31T04:44:16.698Z,18.58
2022-10-31T04:46:44.090Z,18.77
2022-10-31T04:49:11.557Z,18.85
2022-10-31T04:51:38.630Z,18.95
2022-10-31T04:54:05.702Z,19.10
2022-10-31T04:56:55.349Z,19.31
2022-10-31T04:59:23.626Z,19.50
2022-10-31T05:01:53.636Z,19.69
2022-10-31T05:04:41.817Z,19.91
2022-10-31T05:07:08.874Z,20.09
2022-10-31T05:09:35.983Z,20.26
2022-10-31T05:12:02.935Z,20.41
2022-10-31T05:14:52.711Z,20.56
2022-10-31T05:17:38.287Z,20.67
2022-10-31T05:20:14.341Z,20.63
2022-10-31T05:23:13.496Z,20.88
2022-10-31T05:25:41.820Z,21.01
2022-10-31T05:28:08.953Z,21.27
2022-10-31T05:30:36.187Z,21.27
2022-10-31T05:33:04.784Z,21.47
2022-10-31T05:35:51.652Z,21.57
2022-10-31T05:38:24.383Z,21.64
2022-10-31T05:40:51.373Z,21.76
2022-10-31T05:43:18.259Z,21.86
2022-10-31T05:45:45.345Z,21.94
2022-10-31T05:48:30.203Z,22.03
2022-10-31T05:51:19.888Z,22.10
2022-10-31T05:53:48.212Z,22.12
2022-10-31T05:56:15.330Z,22.28
2022-10-31T05:58:42.206Z,22.39
2022-10-31T06:01:10.006Z,22.49
2022-10-31T06:03:38.544Z,22.53
2022-10-31T06:06:09.762Z,22.62
2022-10-31T06:08:39.075Z,22.66
2022-10-31T06:11:10.741Z,22.78
2022-10-31T06:14:07.317Z,22.84
2022-10-31T06:16:45.544Z,22.87
2022-10-31T06:19:32.653Z,22.86
2022-10-31T06:21:59.840Z,22.93
2022-10-31T06:24:26.836Z,22.99
2022-10-31T06:26:53.683Z,23.06
2022-10-31T06:29:21.684Z,23.14
2022-10-31T06:32:05.144Z,23.20
2022-10-31T06:34:37.124Z,23.18
2022-10-31T06:37:04.149Z,23.14
2022-10-31T06:39:31.498Z,23.12
2022-10-31T06:41:58.591Z,23.04
2022-10-31T06:44:27.602Z,23.26
2022-10-31T06:46:54.536Z,23.34
2022-10-31T06:49:51.304Z,23.31
2022-10-31T06:52:24.445Z,23.39
2022-10-31T06:54:51.927Z,23.38
2022-10-31T06:57:19.296Z,23.29
2022-10-31T06:59:46.349Z,23.44
2022-10-31T07:02:25.593Z,23.17
2022-10-31T07:04:52.695Z,23.22
2022-10-31T07:07:22.229Z,23.29
2022-10-31T07:09:50.781Z,23.38
2022-10-31T07:12:21.584Z,23.39
2022-10-31T07:14:56.421Z,23.00
2022-10-31T07:17:29.705Z,23.09
2022-10-31T07:19:58.940Z,22.95
2022-10-31T07:22:36.398Z,22.94
2022-10-31T07:25:05.582Z,23.11
2022-10-31T07:27:51.062Z,23.28
2022-10-31T07:30:19.827Z,23.38
2022-10-31T07:32:50.154Z,23.33
2022-10-31T07:35:37.166Z,23.38
2022-10-31T07:38:08.764Z,23.44
2022-10-31T07:40:35.748Z,23.49
2022-10-31T07:43:03.340Z,23.49
2022-10-31T07:45:54.094Z,23.62
2022-10-31T07:48:47.229Z,23.64
2022-10-31T07:51:32.517Z,23.68
2022-10-31T07:54:25.369Z,23.61
2022-10-31T07:56:52.330Z,23.82
2022-10-31T07:59:19.257Z,23.90
2022-10-31T08:01:46.213Z,23.89
2022-10-31T08:04:33.597Z,23.93
2022-10-31T08:07:18.987Z,23.95
2022-10-31T08:09:53.079Z,24.07
2022-10-31T08:12:23.977Z,24.07
2022-10-31T08:14:51.359Z,24.16
2022-10-31T08:17:19.834Z,24.18
2022-10-31T08:19:53.217Z,24.20
2022-10-31T08:22:24.259Z,24.24
2022-10-31T08:24:51.204Z,24.33
2022-10-31T08:27:18.733Z,24.35
2022-10-31T08:29:46.070Z,24.30
2022-10-31T08:32:13.696Z,24.19
2022-10-31T08:34:58.472Z,24.15
2022-10-31T08:37:56.264Z,24.13
2022-10-31T08:40:26.201Z,24.11
2022-10-31T08:43:03.052Z,24.04
2022-10-31T08:45:30.928Z,23.98
2022-10-31T08:48:02.285Z,23.76
2022-10-31T08:50:31.394Z,23.88
2022-10-31T08:53:06.105Z,23.56
2022-10-31T08:55:35.778Z,23.61
2022-10-31T08:58:05.946Z,23.58
2022-10-31T09:00:41.726Z,23.31
2022-10-31T09:03:17.056Z,23.26
2022-10-31T09:05:44.315Z,23.24
2022-10-31T09:08:16.288Z,23.24
2022-10-31T09:10:46.402Z,23.20
2022-10-31T09:13:20.682Z,22.88
2022-10-31T09:16:06.316Z,23.06
2022-10-31T09:18:34.911Z,23.03
2022-10-31T09:21:01.891Z,22.62
2022-10-31T09:23:30.927Z,22.64
2022-10-31T09:26:00.802Z,22.71
2022-10-31T09:28:47.442Z,22.63
2022-10-31T09:31:17.127Z,22.81
2022-10-31T09:33:49.832Z,22.86
2022-10-31T09:36:47.038Z,22.60
2022-10-31T09:39:23.129Z,22.42
2022-10-31T09:42:19.345Z,22.62
2022-10-31T09:44:46.515Z,22.65
2022-10-31T09:47:38.556Z,22.46
2022-10-31T09:50:48.630Z,21.99
2022-10-31T09:53:48.754Z,21.96
2022-10-31T09:56:22.028Z,22.06
2022-10-31T09:58:59.205Z,22.25
2022-10-31T10:01:48.192Z,22.43
2022-10-31T10:04:33.920Z,22.55
2022-10-31T10:07:24.183Z,22.59
2022-10-31T10:10:40.658Z,22.20
2022-10-31T10:13:47.810Z,22.47
2022-10-31T10:16:34.424Z,22.52
2022-10-31T10:19:07.663Z,22.54
2022-10-31T10:21:38.975Z,22.60
2022-10-31T10:24:24.247Z,22.58
2022-10-31T10:27:11.358Z,22.51
2022-10-31T10:29:50.533Z,22.41
2022-10-31T10:32:25.766Z,22.53
2022-10-31T10:34:55.283Z,22.64
2022-10-31T10:37:24.195Z,22.73
2022-10-31T10:39:54.833Z,22.84
2022-10-31T10:42:40.359Z,22.88
2022-10-31T10:45:44.152Z,22.95
2022-10-31T10:48:41.618Z,23.05
2022-10-31T10:51:25.562Z,23.11
2022-10-31T10:54:15.209Z,23.16
2022-10-31T10:57:00.773Z,23.23
2022-10-31T10:59:27.824Z,23.28
2022-10-31T11:01:54.712Z,23.33
2022-10-31T11:04:35.577Z,23.38
2022-10-31T11:07:06.310Z,23.38
2022-10-31T11:09:33.850Z,23.22
2022-10-31T11:12:01.113Z,23.28
2022-10-31T11:14:28.328Z,23.17
2022-10-31T11:17:10.053Z,23.35
2022-10-31T11:19:37.051Z,23.47
2022-10-31T11:22:17.365Z,23.41
2022-10-31T11:24:44.506Z,23.45
2022-10-31T11:27:18.276Z,23.65
2022-10-31T11:29:45.232Z,23.69
2022-10-31T11:32:25.051Z,23.60
2022-10-31T11:34:56.278Z,23.80
2022-10-31T11:37:26.513Z,23.65
2022-10-31T11:39:57.966Z,23.58
2022-10-31T11:42:27.625Z,23.33
2022-10-31T11:44:54.993Z,23.57
2022-10-31T11:47:27.797Z,23.65
2022-10-31T11:49:54.708Z,23.83
2022-10-31T11:52:29.623Z,23.76
2022-10-31T11:55:23.526Z,23.74
2022-10-31T11:57:56.811Z,23.56
2022-10-31T12:00:48.458Z,23.78
2022-10-31T12:03:23.127Z,23.83
2022-10-31T12:05:57.116Z,23.93
2022-10-31T12:08:24.015Z,24.00
2022-10-31T12:11:25.499Z,24.09
2022-10-31T12:14:14.045Z,24.13
2022-10-31T12:16:49.741Z,24.11
2022-10-31T12:19:50.081Z,24.30
2022-10-31T12:22:25.394Z,24.33
2022-10-31T12:24:52.213Z,24.37
2022-10-31T12:27:19.081Z,24.43
2022-10-31T12:30:13.506Z,24.48
2022-10-31T12:32:59.417Z,24.54
2022-10-31T12:35:45.057Z,24.57
2022-10-31T12:38:41.004Z,24.62
2022-10-31T12:41:29.782Z,24.57
2022-10-31T12:44:37.938Z,24.66
2022-10-31T12:47:26.685Z,24.46
2022-10-31T12:50:02.628Z,24.49
2022-10-31T12:52:41.400Z,24.60
2022-10-31T12:55:36.144Z,24.71
2022-10-31T12:58:22.892Z,24.82
2022-10-31T13:00:52.845Z,24.91
2022-10-31T13:03:34.689Z,25.00
2022-10-31T13:06:09.371Z,24.93
2022-10-31T13:08:56.548Z,25.10
2022-10-31T13:11:35.046Z,25.12
2022-10-31T13:14:17.060Z,25.21
2022-10-31T13:16:45.759Z,25.11
2022-10-31T13:19:23.700Z,25.26
2022-10-31T13:22:07.991Z,25.34
2022-10-31T13:24:54.033Z,25.24
2022-10-31T13:27:25.623Z,25.43
2022-10-31T13:30:05.803Z,25.46
2022-10-31T13:32:52.340Z,25.29
2022-10-31T13:35:25.111Z,25.52
2022-10-31T13:38:11.726Z,25.43
2022-10-31T13:41:03.584Z,25.56
2022-10-31T13:43:42.625Z,25.34
2022-10-31T13:46:34.782Z,25.07
2022-10-31T13:49:01.936Z,25.21
2022-10-31T13:51:33.301Z,25.22
2022-10-31T13:54:02.415Z,25.39
2022-10-31T13:56:31.599Z,25.59
2022-10-31T13:59:10.673Z,25.63
2022-10-31T14:01:37.939Z,25.65
2022-10-31T14:04:45.025Z,25.59
2022-10-31T14:07:13.307Z,25.74
2022-10-31T14:10:02.576Z,25.86
2022-10-31T14:12:40.532Z,25.68
2022-10-31T14:15:21.449Z,25.71
2022-10-31T14:18:00.074Z,25.69
2022-10-31T14:20:35.129Z,25.59
2022-10-31T14:23:36.897Z,25.07
2022-10-31T14:26:07.786Z,24.90
2022-10-31T14:28:35.995Z,25.00
2022-10-31T14:31:03.004Z,25.02
2022-10-31T14:33:31.038Z,24.98
2022-10-31T14:36:01.296Z,24.93
2022-10-31T14:38:31.390Z,24.82
2022-10-31T14:41:19.658Z,24.84
2022-10-31T14:44:08.257Z,24.79
2022-10-31T14:46:38.885Z,24.83
2022-10-31T14:49:15.605Z,24.83
2022-10-31T14:51:47.075Z,24.82
2022-10-31T14:54:21.458Z,24.84
2022-10-31T14:56:52.137Z,24.81
2022-10-31T14:59:23.580Z,24.80
2022-10-31T15:02:16.712Z,24.81
2022-10-31T15:04:43.885Z,24.77
2022-10-31T15:07:12.670Z,24.74
2022-10-31T15:09:41.801Z,24.74
2022-10-31T15:12:29.077Z,24.72
2022-10-31T15:14:56.886Z,24.67
2022-10-31T15:17:24.523Z,24.66
2022-10-31T15:19:51.458Z,24.64
2022-10-31T15:22:19.721Z,24.58
2022-10-31T15:24:46.642Z,24.59
2022-10-31T15:27:16.946Z,24.57
2022-10-31T15:29:56.275Z,24.57
2022-10-31T15:32:26.741Z,24.49
2022-10-31T15:34:54.365Z,24.42
2022-10-31T15:37:22.393Z,24.44
2022-10-31T15:39:50.103Z,24.25
2022-10-31T15:42:28.613Z,24.38
2022-10-31T15:45:03.491Z,24.35
2022-10-31T15:47:31.420Z,24.27
2022-10-31T15:49:59.094Z,24.24
2022-10-31T15:52:43.828Z,24.22
2022-10-31T15:55:21.716Z,23.92
2022-10-31T15:57:50.245Z,24.11
2022-10-31T16:00:30.262Z,24.09
2022-10-31T16:03:15.095Z,24.02
2022-10-31T16:05:46.542Z,23.97
2022-10-31T16:08:31.257Z,23.70
2022-10-31T16:10:58.881Z,23.55
2022-10-31T16:13:32.593Z,23.48
2022-10-31T16:19:01.579Z,23.45
2022-10-31T16:21:31.348Z,23.43
2022-10-31T16:24:05.985Z,23.40
2022-10-31T16:26:33.033Z,23.36
2022-10-31T16:29:04.763Z,23.10
2022-10-31T16:31:39.432Z,23.61
2022-10-31T16:34:11.304Z,23.83
2022-10-31T16:36:40.126Z,23.85
2022-10-31T16:39:07.378Z,23.76
2022-10-31T16:41:42.746Z,23.74
2022-10-31T16:44:22.326Z,23.70
2022-10-31T16:46:49.336Z,23.59
2022-10-31T16:49:16.637Z,23.53
2022-10-31T16:51:43.905Z,23.48
2022-10-31T16:54:11.858Z,23.43
2022-10-31T16:56:38.936Z,23.39
2022-10-31T16:59:09.894Z,23.34
2022-10-31T17:01:41.306Z,23.10
2022-10-31T17:04:10.110Z,23.20
2022-10-31T17:06:37.472Z,23.13
2022-10-31T17:09:04.486Z,23.00
2022-10-31T17:11:31.303Z,22.96
2022-10-31T17:13:58.151Z,22.87
2022-10-31T17:16:25.189Z,22.79
2022-10-31T17:18:52.379Z,22.83
2022-10-31T17:21:23.272Z,22.69
2022-10-31T17:23:50.792Z,22.74
2022-10-31T17:26:18.041Z,22.67
2022-10-31T17:28:45.103Z,22.64
2022-10-31T17:31:33.054Z,22.57
2022-10-31T17:34:02.153Z,22.48
2022-10-31T17:36:31.099Z,22.44
2022-10-31T17:38:58.160Z,22.40
2022-10-31T17:41:25.051Z,22.38
2022-10-31T17:43:56.169Z,22.22
2022-10-31T17:46:23.033Z,22.28
2022-10-31T17:48:49.975Z,22.21
2022-10-31T17:51:16.922Z,22.15
2022-10-31T17:53:43.774Z,22.10
2022-10-31T17:56:10.671Z,21.99
2022-10-31T17:58:37.751Z,22.09
2022-10-31T18:01:09.823Z,22.08
2022-10-31T18:03:36.949Z,21.94
2022-10-31T18:06:03.967Z,21.95
2022-10-31T18:08:32.508Z,21.93
2022-10-31T18:11:02.451Z,21.90
2022-10-31T18:13:29.293Z,21.92
2022-10-31T18:15:56.259Z,21.84
2022-10-31T18:18:23.259Z,21.75
2022-10-31T18:20:50.086Z,21.76
2022-10-31T18:23:17.149Z,21.70
2022-10-31T18:25:44.175Z,21.72
2022-10-31T18:28:11.037Z,21.68
2022-10-31T18:30:41.258Z,21.61
2022-10-31T18:33:08.601Z,21.62
2022-10-31T18:35:37.899Z,21.63
2022-10-31T18:38:06.271Z,21.59
2022-10-31T18:40:36.201Z,21.57
2022-10-31T18:43:03.200Z,21.32
2022-10-31T18:45:41.757Z,21.44
2022-10-31T18:48:14.367Z,21.38
2022-10-31T18:50:41.419Z,21.33
2022-10-31T18:53:08.277Z,21.26
2022-10-31T18:55:39.872Z,21.17
2022-10-31T18:58:08.136Z,21.23
2022-10-31T19:00:35.024Z,21.18
2022-10-31T19:03:02.082Z,21.17
2022-10-31T19:05:29.200Z,21.17
2022-10-31T19:07:56.036Z,21.09
2022-10-31T19:10:22.876Z,21.07
2022-10-31T19:12:49.726Z,21.04
2022-10-31T19:15:16.515Z,21.01
2022-10-31T19:17:43.408Z,21.02
2022-10-31T19:20:10.953Z,20.99
2022-10-31T19:22:37.795Z,20.98
2022-10-31T19:25:07.678Z,20.94
2022-10-31T19:27:37.179Z,20.91
2022-10-31T19:30:04.444Z,20.87
2022-10-31T19:32:31.305Z,20.81
2022-10-31T19:34:58.218Z,20.77
2022-10-31T19:37:25.073Z,20.60
2022-10-31T19:39:52.103Z,20.74
2022-10-31T19:42:18.957Z,20.74
2022-10-31T19:44:45.798Z,20.73
2022-10-31T19:47:12.634Z,20.68
2022-10-31T19:49:39.509Z,20.64
2022-10-31T19:52:06.423Z,20.63
2022-10-31T19:54:33.278Z,20.57
2022-10-31T19:57:00.157Z,20.56
2022-10-31T19:59:27.067Z,20.41
2022-10-31T20:01:53.961Z,20.42
2022-10-31T20:04:20.932Z,20.36
2022-10-31T20:06:47.777Z,20.34
2022-10-31T20:09:14.806Z,20.29
2022-10-31T20:11:42.815Z,20.26
2022-10-31T20:14:11.423Z,20.28
2022-10-31T20:16:38.294Z,20.27
2022-10-31T20:19:05.240Z,20.25
2022-10-31T20:21:34.063Z,20.22
2022-10-31T20:24:02.604Z,20.00
2022-10-31T20:26:31.871Z,20.02
2022-10-31T20:28:59.314Z,20.15
2022-10-31T20:31:27.913Z,20.12
2022-10-31T20:33:55.805Z,20.10
2022-10-31T20:36:23.424Z,20.04
2022-10-31T20:38:51.121Z,20.01
2022-10-31T20:41:18.282Z,19.97
2022-10-31T20:43:45.201Z,19.82
2022-10-31T20:46:23.224Z,19.84
2022-10-31T20:48:50.270Z,19.91
2022-10-31T20:51:25.441Z,19.92
2022-10-31T20:53:52.786Z,19.88
2022-10-31T20:56:20.755Z,19.85
2022-10-31T20:58:47.684Z,19.82
2022-10-31T21:01:25.083Z,19.81
2022-10-31T21:03:52.220Z,19.76
2022-10-31T21:06:19.426Z,19.74
2022-10-31T21:08:46.278Z,19.70
2022-10-31T21:11:15.811Z,19.66
2022-10-31T21:13:43.500Z,19.63
2022-10-31T21:16:12.153Z,19.61
2022-10-31T21:18:39.664Z,19.47
2022-10-31T21:21:15.665Z,19.53
2022-10-31T21:23:43.250Z,19.54
2022-10-31T21:26:17.516Z,19.52
2022-10-31T21:28:44.387Z,19.46
2022-10-31T21:31:14.066Z,19.44
2022-10-31T21:33:41.064Z,19.41
2022-10-31T21:36:08.288Z,19.41
2022-10-31T21:38:35.332Z,19.39
2022-10-31T21:41:07.064Z,19.33
2022-10-31T21:43:37.798Z,19.20
2022-10-31T21:46:15.015Z,19.25
2022-10-31T21:48:42.974Z,19.22
2022-10-31T21:51:11.329Z,19.20
2022-10-31T21:53:56.812Z,19.23
2022-10-31T21:56:24.037Z,19.21
2022-10-31T21:58:51.539Z,19.17
2022-10-31T22:01:18.541Z,19.20
2022-10-31T22:03:45.469Z,19.19
2022-10-31T22:06:12.616Z,19.14
2022-10-31T22:08:40.722Z,19.12
2022-10-31T22:11:13.643Z,19.10
2022-10-31T22:13:40.960Z,19.10
2022-10-31T22:16:09.522Z,19.07
2022-10-31T22:18:36.581Z,19.02
2022-10-31T22:21:14.771Z,19.04
2022-10-31T22:23:41.872Z,19.00
2022-10-31T22:26:14.413Z,18.98
2022-10-31T22:28:42.083Z,18.81
2022-10-31T22:31:09.786Z,18.89
2022-10-31T22:33:36.780Z,18.93
2022-10-31T22:36:05.581Z,18.92
2022-10-31T22:38:34.387Z,18.89
2022-10-31T22:41:01.745Z,18.86
2022-10-31T22:43:28.556Z,18.90
2022-10-31T22:45:56.347Z,18.87
2022-10-31T22:48:23.222Z,18.85
2022-10-31T22:50:50.049Z,18.85
2022-10-31T22:53:16.887Z,18.84
2022-10-31T22:55:43.821Z,18.78
2022-10-31T22:58:10.653Z,18.77
2022-10-31T23:00:37.575Z,18.75
2022-10-31T23:03:04.527Z,18.72
2022-10-31T23:05:31.413Z,18.72
2022-10-31T23:07:58.567Z,18.70
2022-10-31T23:10:33.164Z,18.69
2022-10-31T23:13:19.383Z,18.63
2022-10-31T23:15:46.312Z,18.47
2022-10-31T23:18:23.856Z,18.61
2022-10-31T23:20:56.926Z,18.58
2022-10-31T23:23:23.785Z,18.54
2022-10-31T23:26:09.422Z,18.56
2022-10-31T23:28:36.457Z,18.54
2022-10-31T23:31:03.306Z,18.55
2022-10-31T23:33:31.548Z,18.51
2022-10-31T23:35:58.467Z,18.47
2022-10-31T23:38:25.291Z,18.46
2022-10-31T23:40:52.187Z,18.48
2022-10-31T23:43:19.051Z,18.46
2022-10-31T23:45:45.857Z,18.46
2022-10-31T23:48:12.731Z,18.43
2022-10-31T23:50:39.557Z,18.41
2022-10-31T23:53:06.376Z,18.42
2022-10-31T23:55:33.293Z,18.45
2022-10-31T23:58:00.407Z,18.41
